createdAt,value
2022-12-01T00:00:58.190Z,54.36
2022-12-01T00:01:58.290Z,54.50
2022-12-01T00:02:58.314Z,54.39
2022-12-01T00:03:58.185Z,54.87
2022-12-01T00:04:58.178Z,54.82
2022-12-01T00:05:58.211Z,54.20
2022-12-01T00:06:58.153Z,54.46
2022-12-01T00:07:58.204Z,54.32
2022-12-01T00:08:58.137Z,54.52
2022-12-01T00:09:58.121Z,56.24
2022-12-01T00:10:58.108Z,54.54
2022-12-01T00:11:58.176Z,54.47
2022-12-01T00:12:58.106Z,54.54
2022-12-01T00:13:58.113Z,54.44
2022-12-01T00:14:58.096Z,54.52
2022-12-01T00:15:58.067Z,54.34
2022-12-01T00:16:58.116Z,54.44
2022-12-01T00:17:58.131Z,54.40
2022-12-01T00:18:58.052Z,54.39
2022-12-01T00:19:58.059Z,54.36
2022-12-01T00:20:58.034Z,54.17
2022-12-01T00:21:58.046Z,54.31
2022-12-01T00:22:58.031Z,54.50
2022-12-01T00:23:58.235Z,54.96
2022-12-01T00:24:58.010Z,54.90
2022-12-01T00:25:58.009Z,56.09
2022-12-01T00:26:58.025Z,55.40
2022-12-01T00:27:58.001Z,54.46
2022-12-01T00:28:58.026Z,54.37
2022-12-01T00:29:58.041Z,54.33
2022-12-01T00:30:57.985Z,54.45
2022-12-01T00:31:58.019Z,54.75
2022-12-01T00:32:57.982Z,54.61
2022-12-01T00:33:57.975Z,54.56
2022-12-01T00:34:57.968Z,54.45
2022-12-01T00:35:58.011Z,54.47
2022-12-01T00:36:57.931Z,54.54
2022-12-01T00:37:57.923Z,54.82
2022-12-01T00:38:57.920Z,54.43
2022-12-01T00:39:57.914Z,54.47
2022-12-01T00:40:57.900Z,54.31
2022-12-01T00:41:57.958Z,55.76
2022-12-01T00:42:57.891Z,54.60
2022-12-01T00:43:57.902Z,54.47
2022-12-01T00:44:57.902Z,54.62
2022-12-01T00:45:57.945Z,54.41
2022-12-01T00:46:57.872Z,54.58
2022-12-01T00:47:57.885Z,54.61
2022-12-01T00:48:57.876Z,55.00
2022-12-01T00:49:57.876Z,54.62
2022-12-01T00:50:57.834Z,54.34
2022-12-01T00:51:57.844Z,54.54
2022-12-01T00:52:57.843Z,55.49
2022-12-01T00:53:57.860Z,54.96
2022-12-01T00:54:57.830Z,54.48
2022-12-01T00:55:57.802Z,54.49
2022-12-01T00:56:57.819Z,55.85
2022-12-01T00:57:57.798Z,54.47
2022-12-01T00:58:57.807Z,55.32
2022-12-01T00:59:57.860Z,54.37
2022-12-01T01:00:57.846Z,54.15
2022-12-01T01:01:57.856Z,54.31
2022-12-01T01:02:57.770Z,54.78
2022-12-01T01:03:57.770Z,56.72
2022-12-01T01:04:57.750Z,54.48
2022-12-01T01:05:57.788Z,56.30
2022-12-01T01:06:57.809Z,54.48
2022-12-01T01:07:57.812Z,54.44
2022-12-01T01:08:57.727Z,54.36
2022-12-01T01:09:57.696Z,54.85
2022-12-01T01:10:57.705Z,56.29
2022-12-01T01:11:57.747Z,55.01
2022-12-01T01:12:57.696Z,54.74
2022-12-01T01:13:57.677Z,54.35
2022-12-01T01:14:57.692Z,54.30
2022-12-01T01:15:57.682Z,54.51
2022-12-01T01:16:57.764Z,54.53
2022-12-01T01:17:57.704Z,54.54
2022-12-01T01:18:57.654Z,54.38
2022-12-01T01:19:57.640Z,54.37
2022-12-01T01:20:57.659Z,54.54
2022-12-01T01:21:57.616Z,54.91
2022-12-01T01:22:57.616Z,54.70
2022-12-01T01:23:58.056Z,54.92
2022-12-01T01:24:57.590Z,54.55
2022-12-01T01:25:57.586Z,54.56
2022-12-01T01:26:57.556Z,54.38
2022-12-01T01:27:57.577Z,54.94
2022-12-01T01:28:57.606Z,54.72
2022-12-01T01:29:57.659Z,54.57
2022-12-01T01:30:57.593Z,54.36
2022-12-01T01:31:57.548Z,54.53
2022-12-01T01:32:57.547Z,54.61
2022-12-01T01:33:57.529Z,54.47
2022-12-01T01:34:57.529Z,54.37
2022-12-01T01:35:57.580Z,54.70
2022-12-01T01:36:57.512Z,55.24
2022-12-01T01:37:57.508Z,54.22
2022-12-01T01:38:57.483Z,54.48
2022-12-01T01:39:57.505Z,54.37
2022-12-01T01:40:57.498Z,54.64
2022-12-01T01:41:57.514Z,56.80
2022-12-01T01:42:57.463Z,57.57
2022-12-01T01:43:57.489Z,54.19
2022-12-01T01:44:57.449Z,54.88
2022-12-01T01:45:57.520Z,54.26
2022-12-01T01:46:57.460Z,54.39
2022-12-01T01:47:57.497Z,54.31
2022-12-01T01:48:57.435Z,54.12
2022-12-01T01:49:57.428Z,54.23
2022-12-01T01:50:57.432Z,54.07
2022-12-01T01:51:57.408Z,54.02
2022-12-01T01:52:57.434Z,54.17
2022-12-01T01:53:57.478Z,54.59
2022-12-01T01:54:57.410Z,56.98
2022-12-01T01:55:57.411Z,54.17
2022-12-01T01:56:57.401Z,54.41
2022-12-01T01:58:18.823Z,56.80
2022-12-01T01:58:57.372Z,55.16
2022-12-01T01:59:57.414Z,54.55
2022-12-01T02:00:57.453Z,54.70
2022-12-01T02:01:57.349Z,57.02
2022-12-01T02:02:57.444Z,54.53
2022-12-01T02:03:57.355Z,54.34
2022-12-01T02:04:57.348Z,54.19
2022-12-01T02:06:01.833Z,54.23
2022-12-01T02:06:58.317Z,55.09
2022-12-01T02:07:57.372Z,55.92
2022-12-01T02:08:57.302Z,54.47
2022-12-01T02:09:57.316Z,56.42
2022-12-01T02:10:57.307Z,54.53
2022-12-01T02:11:57.324Z,54.49
2022-12-01T02:12:57.268Z,54.40
2022-12-01T02:13:57.277Z,54.48
2022-12-01T02:14:57.278Z,54.52
2022-12-01T02:15:57.262Z,54.48
2022-12-01T02:16:57.315Z,54.39
2022-12-01T02:17:57.299Z,54.51
2022-12-01T02:18:57.236Z,55.61
2022-12-01T02:19:57.208Z,54.37
2022-12-01T02:20:57.229Z,54.27
2022-12-01T02:21:57.212Z,54.28
2022-12-01T02:22:57.194Z,54.27
2022-12-01T02:23:57.470Z,54.40
2022-12-01T02:24:57.184Z,54.36
2022-12-01T02:25:57.167Z,54.20
2022-12-01T02:26:57.165Z,55.41
2022-12-01T02:27:57.156Z,54.94
2022-12-01T02:28:57.186Z,54.26
2022-12-01T02:29:57.203Z,54.44
2022-12-01T02:30:57.248Z,54.72
2022-12-01T02:31:57.133Z,54.48
2022-12-01T02:32:57.169Z,54.48
2022-12-01T02:33:57.122Z,54.42
2022-12-01T02:34:57.103Z,54.24
2022-12-01T02:35:57.159Z,54.52
2022-12-01T02:36:57.102Z,54.22
2022-12-01T02:37:57.102Z,54.10
2022-12-01T02:38:57.214Z,54.17
2022-12-01T02:39:57.092Z,54.01
2022-12-01T02:40:57.100Z,54.39
2022-12-01T02:41:57.110Z,54.57
2022-12-01T02:42:57.075Z,54.34
2022-12-01T02:43:57.055Z,54.82
2022-12-01T02:44:57.043Z,54.75
2022-12-01T02:45:57.080Z,54.64
2022-12-01T02:46:57.054Z,54.58
2022-12-01T02:47:57.108Z,55.17
2022-12-01T02:48:57.026Z,56.75
2022-12-01T02:49:57.020Z,54.69
2022-12-01T02:50:57.018Z,54.41
2022-12-01T02:51:57.009Z,54.54
2022-12-01T02:52:56.983Z,54.34
2022-12-01T02:53:57.053Z,54.53
2022-12-01T02:54:56.940Z,55.60
2022-12-01T02:55:56.977Z,54.60
2022-12-01T02:56:56.958Z,55.41
2022-12-01T02:57:56.952Z,57.32
2022-12-01T02:58:56.948Z,55.19
2022-12-01T02:59:56.982Z,56.02
2022-12-01T03:00:56.919Z,54.76
2022-12-01T03:01:56.911Z,56.45
2022-12-01T03:02:57.002Z,54.90
2022-12-01T03:03:56.906Z,54.57
2022-12-01T03:04:56.909Z,54.66
2022-12-01T03:05:56.965Z,54.75
2022-12-01T03:06:56.876Z,54.81
2022-12-01T03:07:56.898Z,54.91
2022-12-01T03:08:56.876Z,55.99
2022-12-01T03:09:56.863Z,54.55
2022-12-01T03:10:56.854Z,56.95
2022-12-01T03:11:56.913Z,54.65
2022-12-01T03:12:56.843Z,54.63
2022-12-01T03:13:56.824Z,54.70
2022-12-01T03:14:56.828Z,54.20
2022-12-01T03:15:56.870Z,54.19
2022-12-01T03:16:56.824Z,54.31
2022-12-01T03:17:56.852Z,54.33
2022-12-01T03:18:56.799Z,54.63
2022-12-01T03:19:56.797Z,54.59
2022-12-01T03:20:56.776Z,54.63
2022-12-01T03:21:56.777Z,54.64
2022-12-01T03:22:56.796Z,54.73
2022-12-01T03:23:56.822Z,54.46
2022-12-01T03:24:56.754Z,54.62
2022-12-01T03:25:56.775Z,55.01
2022-12-01T03:26:56.738Z,54.81
2022-12-01T03:28:20.101Z,54.77
2022-12-01T03:28:57.910Z,54.93
2022-12-01T03:29:56.783Z,55.18
2022-12-01T03:30:56.746Z,56.13
2022-12-01T03:31:56.721Z,57.02
2022-12-01T03:32:56.690Z,54.66
2022-12-01T03:33:56.750Z,55.19
2022-12-01T03:34:56.739Z,54.72
2022-12-01T03:35:56.811Z,54.88
2022-12-01T03:36:56.664Z,55.07
2022-12-01T03:37:56.787Z,56.32
2022-12-01T03:38:56.652Z,54.91
2022-12-01T03:40:00.257Z,54.56
2022-12-01T03:40:56.687Z,55.99
2022-12-01T03:41:56.641Z,56.27
2022-12-01T03:42:56.628Z,55.17
2022-12-01T03:43:56.647Z,54.66
2022-12-01T03:44:56.618Z,54.87
2022-12-01T03:45:56.693Z,54.98
2022-12-01T03:46:56.673Z,55.17
2022-12-01T03:47:56.625Z,54.85
2022-12-01T03:48:56.661Z,55.10
2022-12-01T03:49:56.599Z,56.69
2022-12-01T03:50:56.563Z,55.69
2022-12-01T03:51:56.582Z,56.30
2022-12-01T03:52:56.609Z,54.99
2022-12-01T03:53:56.681Z,54.70
2022-12-01T03:54:56.541Z,55.08
2022-12-01T03:55:56.547Z,54.41
2022-12-01T03:56:56.538Z,54.63
2022-12-01T03:57:56.567Z,55.00
2022-12-01T03:58:56.564Z,55.84
2022-12-01T03:59:56.520Z,54.94
2022-12-01T04:00:56.500Z,55.10
2022-12-01T04:01:56.553Z,58.29
2022-12-01T04:02:56.545Z,55.36
2022-12-01T04:03:56.500Z,54.78
2022-12-01T04:04:56.511Z,54.61
2022-12-01T04:05:56.484Z,54.86
2022-12-01T04:06:56.451Z,54.95
2022-12-01T04:07:56.527Z,54.92
2022-12-01T04:08:56.463Z,55.84
2022-12-01T04:09:56.525Z,55.02
2022-12-01T04:10:56.507Z,54.99
2022-12-01T04:11:56.447Z,54.80
2022-12-01T04:12:56.421Z,55.06
2022-12-01T04:13:56.430Z,56.88
2022-12-01T04:14:56.413Z,54.78
2022-12-01T04:15:56.442Z,54.79
2022-12-01T04:16:56.428Z,54.77
2022-12-01T04:17:56.461Z,55.80
2022-12-01T04:18:56.385Z,54.89
2022-12-01T04:19:56.361Z,57.35
2022-12-01T04:20:56.371Z,54.84
2022-12-01T04:21:56.379Z,54.97
2022-12-01T04:22:56.422Z,54.96
2022-12-01T04:23:56.344Z,54.82
2022-12-01T04:24:56.338Z,55.05
2022-12-01T04:25:56.333Z,56.29
2022-12-01T04:26:56.319Z,54.93
2022-12-01T04:27:56.319Z,54.69
2022-12-01T04:28:56.348Z,54.70
2022-12-01T04:29:56.322Z,54.55
2022-12-01T04:30:56.388Z,56.60
2022-12-01T04:31:56.278Z,56.43
2022-12-01T04:32:56.287Z,55.40
2022-12-01T04:33:56.284Z,55.56
2022-12-01T04:34:56.379Z,55.45
2022-12-01T04:35:56.279Z,55.28
2022-12-01T04:36:56.237Z,56.03
2022-12-01T04:37:56.252Z,56.83
2022-12-01T04:38:56.247Z,58.00
2022-12-01T04:39:56.226Z,55.35
2022-12-01T04:40:56.262Z,55.21
2022-12-01T04:41:56.222Z,55.97
2022-12-01T04:42:56.217Z,55.82
2022-12-01T04:43:56.201Z,55.36
2022-12-01T04:44:56.193Z,55.74
2022-12-01T04:45:56.182Z,55.49
2022-12-01T04:46:56.279Z,55.12
2022-12-01T04:47:56.181Z,57.07
2022-12-01T04:48:56.151Z,56.67
2022-12-01T04:49:56.183Z,55.41
2022-12-01T04:50:56.147Z,56.10
2022-12-01T04:51:56.153Z,55.40
2022-12-01T04:52:56.193Z,54.97
2022-12-01T04:53:56.135Z,55.21
2022-12-01T04:54:56.133Z,55.33
2022-12-01T04:55:56.122Z,56.41
2022-12-01T04:56:56.103Z,55.50
2022-12-01T04:57:56.105Z,55.76
2022-12-01T04:58:56.165Z,55.75
2022-12-01T04:59:56.093Z,57.01
2022-12-01T05:00:56.122Z,57.66
2022-12-01T05:01:56.149Z,59.02
2022-12-01T05:02:56.061Z,58.84
2022-12-01T05:03:56.076Z,56.31
2022-12-01T05:04:56.105Z,56.78
2022-12-01T05:05:56.050Z,56.75
2022-12-01T05:06:56.040Z,56.03
2022-12-01T05:07:56.078Z,57.68
2022-12-01T05:08:56.014Z,58.99
2022-12-01T05:09:56.043Z,57.52
2022-12-01T05:10:56.050Z,56.28
2022-12-01T05:11:56.134Z,55.81
2022-12-01T05:12:56.004Z,57.33
2022-12-01T05:13:55.970Z,56.59
2022-12-01T05:14:55.972Z,58.20
2022-12-01T05:15:56.035Z,59.95
2022-12-01T05:16:56.019Z,57.75
2022-12-01T05:17:55.959Z,59.88
2022-12-01T05:18:55.977Z,57.77
2022-12-01T05:19:55.947Z,57.18
2022-12-01T05:20:55.938Z,56.65
2022-12-01T05:21:55.932Z,59.25
2022-12-01T05:23:05.319Z,57.16
2022-12-01T05:23:56.935Z,56.73
2022-12-01T05:24:55.892Z,57.15
2022-12-01T05:25:55.904Z,59.39
2022-12-01T05:26:55.891Z,58.21
2022-12-01T05:27:55.890Z,59.67
2022-12-01T05:28:55.916Z,58.99
2022-12-01T05:29:55.871Z,57.21
2022-12-01T05:30:55.865Z,57.34
2022-12-01T05:31:55.905Z,58.51
2022-12-01T05:32:55.845Z,57.81
2022-12-01T05:33:55.840Z,56.75
2022-12-01T05:34:55.924Z,56.25
2022-12-01T05:35:55.824Z,58.29
2022-12-01T05:36:55.813Z,55.97
2022-12-01T05:37:55.831Z,57.45
2022-12-01T05:38:55.791Z,57.44
2022-12-01T05:39:55.785Z,58.06
2022-12-01T05:40:56.058Z,56.20
2022-12-01T05:41:55.786Z,57.10
2022-12-01T05:42:55.797Z,60.54
2022-12-01T05:43:55.785Z,57.02
2022-12-01T05:44:55.773Z,57.24
2022-12-01T05:45:55.913Z,57.66
2022-12-01T05:46:55.809Z,60.28
2022-12-01T05:47:55.736Z,59.32
2022-12-01T05:48:55.736Z,56.80
2022-12-01T05:49:59.531Z,58.54
2022-12-01T05:50:56.721Z,58.30
2022-12-01T05:51:55.720Z,59.84
2022-12-01T05:52:55.743Z,58.44
2022-12-01T05:53:55.703Z,60.21
2022-12-01T05:54:55.691Z,58.74
2022-12-01T05:55:55.653Z,59.38
2022-12-01T05:56:55.691Z,58.18
2022-12-01T05:57:55.662Z,58.03
2022-12-01T05:58:55.711Z,58.07
2022-12-01T05:59:55.637Z,59.68
2022-12-01T06:00:55.656Z,59.93
2022-12-01T06:01:55.678Z,59.50
2022-12-01T06:02:55.653Z,60.38
2022-12-01T06:03:55.699Z,58.43
2022-12-01T06:04:55.663Z,59.79
2022-12-01T06:05:55.617Z,59.80
2022-12-01T06:06:55.606Z,61.51
2022-12-01T06:07:55.640Z,60.53
2022-12-01T06:08:55.585Z,57.87
2022-12-01T06:09:55.591Z,60.22
2022-12-01T06:10:55.642Z,60.97
2022-12-01T06:11:55.579Z,72.45
2022-12-01T06:12:55.567Z,72.86
2022-12-01T06:13:55.578Z,68.80
2022-12-01T06:14:55.560Z,68.71
2022-12-01T06:15:55.591Z,67.80
2022-12-01T06:16:55.616Z,67.19
2022-12-01T06:17:55.524Z,67.30
2022-12-01T06:18:55.523Z,67.49
2022-12-01T06:19:55.512Z,67.55
2022-12-01T06:20:55.527Z,67.94
2022-12-01T06:21:55.508Z,69.30
2022-12-01T06:22:55.563Z,68.34
2022-12-01T06:23:55.497Z,68.67
2022-12-01T06:24:55.494Z,69.91
2022-12-01T06:25:55.471Z,74.36
2022-12-01T06:26:55.487Z,72.79
2022-12-01T06:27:55.476Z,73.49
2022-12-01T06:28:55.519Z,73.65
2022-12-01T06:29:55.451Z,73.43
2022-12-01T06:30:59.488Z,72.34
2022-12-01T06:31:56.492Z,69.26
2022-12-01T06:32:55.440Z,68.04
2022-12-01T06:33:55.435Z,68.54
2022-12-01T06:34:55.457Z,68.55
2022-12-01T06:35:55.398Z,69.10
2022-12-01T06:36:55.407Z,68.69
2022-12-01T06:37:55.398Z,68.50
2022-12-01T06:38:55.371Z,68.71
2022-12-01T06:39:55.404Z,68.75
2022-12-01T06:40:55.502Z,67.57
2022-12-01T06:41:55.359Z,67.84
2022-12-01T06:42:55.375Z,67.59
2022-12-01T06:43:55.347Z,67.99
2022-12-01T06:44:55.369Z,67.66
2022-12-01T06:46:01.256Z,67.58
2022-12-01T06:46:56.374Z,67.43
2022-12-01T06:47:55.340Z,67.56
2022-12-01T06:48:55.337Z,67.22
2022-12-01T06:49:55.310Z,67.61
2022-12-01T06:50:55.312Z,67.55
2022-12-01T06:51:55.311Z,66.94
2022-12-01T06:52:55.349Z,67.53
2022-12-01T06:53:55.301Z,68.17
2022-12-01T06:54:55.293Z,67.45
2022-12-01T06:55:55.274Z,67.04
2022-12-01T06:56:55.300Z,67.18
2022-12-01T06:57:55.269Z,66.89
2022-12-01T06:58:55.335Z,68.00
2022-12-01T06:59:55.252Z,67.23
2022-12-01T07:00:55.316Z,67.27
2022-12-01T07:01:55.279Z,67.38
2022-12-01T07:02:55.317Z,67.28
2022-12-01T07:03:55.222Z,68.11
2022-12-01T07:04:55.278Z,70.95
2022-12-01T07:05:55.210Z,70.18
2022-12-01T07:06:55.226Z,69.26
2022-12-01T07:07:59.532Z,67.78
2022-12-01T07:08:55.168Z,67.67
2022-12-01T07:09:55.184Z,67.84
2022-12-01T07:10:55.208Z,67.77
2022-12-01T07:11:55.156Z,67.72
2022-12-01T07:12:55.143Z,68.54
2022-12-01T07:13:55.152Z,68.56
2022-12-01T07:14:55.146Z,72.18
2022-12-01T07:15:55.154Z,69.86
2022-12-01T07:16:55.292Z,68.26
2022-12-01T07:17:55.112Z,67.26
2022-12-01T07:18:55.093Z,69.23
2022-12-01T07:19:55.112Z,70.25
2022-12-01T07:20:55.115Z,67.47
2022-12-01T07:21:55.081Z,67.45
2022-12-01T07:22:55.134Z,68.89
2022-12-01T07:23:55.096Z,70.33
2022-12-01T07:24:55.078Z,69.68
2022-12-01T07:25:55.074Z,71.15
2022-12-01T07:26:55.041Z,69.87
2022-12-01T07:27:55.063Z,72.29
2022-12-01T07:28:55.089Z,69.47
2022-12-01T07:29:55.062Z,69.78
2022-12-01T07:30:55.085Z,70.56
2022-12-01T07:31:55.023Z,72.57
2022-12-01T07:32:55.011Z,74.69
2022-12-01T07:33:55.023Z,72.59
2022-12-01T07:34:55.055Z,67.13
2022-12-01T07:35:55.132Z,67.20
2022-12-01T07:36:54.984Z,67.56
2022-12-01T07:37:54.952Z,67.36
2022-12-01T07:38:54.944Z,67.38
2022-12-01T07:39:54.986Z,66.87
2022-12-01T07:40:54.981Z,67.54
2022-12-01T07:41:54.938Z,67.97
2022-12-01T07:42:54.924Z,67.65
2022-12-01T07:43:54.926Z,69.69
2022-12-01T07:44:55.026Z,69.67
2022-12-01T07:45:54.966Z,70.50
2022-12-01T07:46:55.344Z,71.16
2022-12-01T07:47:54.909Z,70.15
2022-12-01T07:48:54.898Z,70.13
2022-12-01T07:49:54.875Z,70.39
2022-12-01T07:50:54.880Z,71.50
2022-12-01T07:51:54.870Z,71.80
2022-12-01T07:52:54.908Z,68.43
2022-12-01T07:53:54.868Z,72.95
2022-12-01T07:54:54.851Z,75.11
2022-12-01T07:55:54.861Z,73.78
2022-12-01T07:56:54.835Z,74.43
2022-12-01T07:57:54.826Z,71.94
2022-12-01T07:58:54.905Z,69.78
2022-12-01T07:59:54.799Z,67.80
2022-12-01T08:00:54.815Z,67.08
2022-12-01T08:01:54.811Z,65.25
2022-12-01T08:02:54.847Z,65.67
2022-12-01T08:03:54.799Z,68.72
2022-12-01T08:04:54.841Z,67.49
2022-12-01T08:05:54.798Z,67.00
2022-12-01T08:06:54.765Z,67.29
2022-12-01T08:07:54.825Z,66.74
2022-12-01T08:08:54.775Z,68.39
2022-12-01T08:09:54.762Z,67.63
2022-12-01T08:10:54.813Z,68.34
2022-12-01T08:11:54.744Z,68.41
2022-12-01T08:12:54.726Z,67.80
2022-12-01T08:13:54.701Z,68.22
2022-12-01T08:14:54.693Z,64.57
2022-12-01T08:15:54.734Z,63.53
2022-12-01T08:16:54.770Z,65.22
2022-12-01T08:17:54.687Z,65.89
2022-12-01T08:18:54.709Z,65.50
2022-12-01T08:19:54.673Z,65.39
2022-12-01T08:20:54.689Z,65.17
2022-12-01T08:21:54.663Z,65.83
2022-12-01T08:22:54.677Z,65.74
2022-12-01T08:23:54.665Z,67.41
2022-12-01T08:24:54.649Z,65.90
2022-12-01T08:25:54.638Z,65.42
2022-12-01T08:26:54.643Z,64.97
2022-12-01T08:27:54.608Z,69.58
2022-12-01T08:28:54.634Z,69.48
2022-12-01T08:29:54.600Z,68.03
2022-12-01T08:30:54.614Z,66.43
2022-12-01T08:31:54.592Z,70.11
2022-12-01T08:32:54.602Z,70.90
2022-12-01T08:33:54.588Z,71.69
2022-12-01T08:34:54.625Z,71.31
2022-12-01T08:35:54.562Z,70.20
2022-12-01T08:36:54.572Z,71.46
2022-12-01T08:37:54.561Z,72.63
2022-12-01T08:38:54.535Z,74.85
2022-12-01T08:39:54.527Z,75.31
2022-12-01T08:40:54.579Z,76.40
2022-12-01T08:41:54.517Z,75.62
2022-12-01T08:42:54.504Z,73.10
2022-12-01T08:43:59.055Z,71.05
2022-12-01T08:44:55.565Z,73.33
2022-12-01T08:45:54.514Z,73.80
2022-12-01T08:46:54.596Z,71.79
2022-12-01T08:47:54.519Z,72.31
2022-12-01T08:48:54.451Z,69.44
2022-12-01T08:49:54.449Z,71.44
2022-12-01T08:50:54.500Z,70.95
2022-12-01T08:51:54.464Z,71.31
2022-12-01T08:52:54.641Z,71.98
2022-12-01T08:53:54.453Z,72.77
2022-12-01T08:54:54.429Z,73.26
2022-12-01T08:55:54.449Z,73.41
2022-12-01T08:56:54.400Z,72.04
2022-12-01T08:57:54.398Z,76.30
2022-12-01T08:58:54.443Z,73.44
2022-12-01T08:59:54.398Z,70.21
2022-12-01T09:00:54.393Z,72.87
2022-12-01T09:01:54.456Z,73.83
2022-12-01T09:02:54.411Z,72.28
2022-12-01T09:03:54.365Z,72.98
2022-12-01T09:04:54.438Z,71.03
2022-12-01T09:05:54.366Z,70.49
2022-12-01T09:06:54.334Z,70.20
2022-12-01T09:07:54.381Z,71.80
2022-12-01T09:08:54.332Z,71.11
2022-12-01T09:09:54.313Z,70.19
2022-12-01T09:10:54.364Z,71.04
2022-12-01T09:11:54.301Z,72.68
2022-12-01T09:12:54.282Z,72.25
2022-12-01T09:13:54.798Z,69.75
2022-12-01T09:14:54.299Z,68.36
2022-12-01T09:15:54.362Z,68.71
2022-12-01T09:16:54.310Z,68.84
2022-12-01T09:17:54.245Z,69.46
2022-12-01T09:18:54.244Z,71.66
2022-12-01T09:19:54.239Z,69.70
2022-12-01T09:20:54.245Z,70.34
2022-12-01T09:21:54.264Z,69.96
2022-12-01T09:22:54.252Z,68.50
2022-12-01T09:23:54.195Z,68.22
2022-12-01T09:24:54.209Z,71.13
2022-12-01T09:25:54.543Z,68.22
2022-12-01T09:26:54.195Z,69.92
2022-12-01T09:27:54.195Z,76.08
2022-12-01T09:28:54.265Z,76.41
2022-12-01T09:29:54.160Z,76.40
2022-12-01T09:30:54.170Z,77.34
2022-12-01T09:31:54.223Z,73.72
2022-12-01T09:32:54.156Z,72.42
2022-12-01T09:33:54.287Z,79.80
2022-12-01T09:34:54.215Z,81.21
2022-12-01T09:35:54.129Z,79.42
2022-12-01T09:36:54.129Z,80.54
2022-12-01T09:37:54.119Z,81.16
2022-12-01T09:38:54.139Z,80.94
2022-12-01T09:39:54.100Z,78.79
2022-12-01T09:40:54.145Z,76.22
2022-12-01T09:41:54.154Z,76.95
2022-12-01T09:42:54.074Z,70.62
2022-12-01T09:43:54.085Z,71.76
2022-12-01T09:44:54.067Z,73.07
2022-12-01T09:45:54.044Z,73.52
2022-12-01T09:46:54.187Z,70.81
2022-12-01T09:47:54.054Z,74.44
2022-12-01T09:48:54.067Z,71.02
2022-12-01T09:49:54.048Z,70.61
2022-12-01T09:50:54.044Z,74.26
2022-12-01T09:51:54.008Z,72.22
2022-12-01T09:52:54.087Z,69.57
2022-12-01T09:53:53.988Z,71.54
2022-12-01T09:54:53.994Z,69.27
2022-12-01T09:55:56.677Z,69.25
2022-12-01T09:56:54.979Z,70.70
2022-12-01T09:57:54.571Z,69.92
2022-12-01T09:58:54.306Z,71.31
2022-12-01T09:59:53.951Z,70.18
2022-12-01T10:00:54.020Z,71.71
2022-12-01T10:01:54.096Z,78.54
2022-12-01T10:02:53.942Z,80.03
2022-12-01T10:03:53.922Z,79.94
2022-12-01T10:04:54.024Z,80.05
2022-12-01T10:06:25.107Z,78.10
2022-12-01T10:06:54.922Z,78.76
2022-12-01T10:07:53.944Z,77.51
2022-12-01T10:08:53.917Z,78.04
2022-12-01T10:09:53.913Z,78.40
2022-12-01T10:10:53.938Z,73.43
2022-12-01T10:11:53.880Z,72.40
2022-12-01T10:12:53.890Z,72.54
2022-12-01T10:13:53.873Z,72.70
2022-12-01T10:14:53.845Z,70.15
2022-12-01T10:15:53.875Z,68.81
2022-12-01T10:16:53.923Z,68.38
2022-12-01T10:17:53.846Z,70.10
2022-12-01T10:18:53.827Z,70.28
2022-12-01T10:19:53.820Z,75.04
2022-12-01T10:20:53.845Z,78.30
2022-12-01T10:21:53.835Z,78.16
2022-12-01T10:22:53.865Z,78.59
2022-12-01T10:23:53.803Z,80.19
2022-12-01T10:24:53.802Z,77.97
2022-12-01T10:25:53.805Z,78.00
2022-12-01T10:26:53.776Z,78.89
2022-12-01T10:27:53.771Z,78.27
2022-12-01T10:28:53.838Z,78.19
2022-12-01T10:29:54.069Z,78.70
2022-12-01T10:30:53.767Z,72.47
2022-12-01T10:31:53.859Z,74.66
2022-12-01T10:32:53.741Z,75.44
2022-12-01T10:33:53.714Z,79.81
2022-12-01T10:34:53.796Z,71.42
2022-12-01T10:35:53.716Z,67.06
2022-12-01T10:36:53.696Z,72.10
2022-12-01T10:37:53.740Z,72.81
2022-12-01T10:38:53.700Z,69.53
2022-12-01T10:39:53.717Z,69.94
2022-12-01T10:40:53.737Z,74.25
2022-12-01T10:41:53.677Z,67.14
2022-12-01T10:42:53.663Z,63.65
2022-12-01T10:43:53.672Z,61.36
2022-12-01T10:44:53.643Z,62.30
2022-12-01T10:45:53.715Z,59.68
2022-12-01T10:46:53.703Z,62.66
2022-12-01T10:47:57.584Z,65.47
2022-12-01T10:48:54.616Z,62.10
2022-12-01T10:49:53.714Z,63.41
2022-12-01T10:50:53.614Z,64.48
2022-12-01T10:51:53.573Z,64.53
2022-12-01T10:52:53.652Z,64.30
2022-12-01T10:53:53.602Z,63.39
2022-12-01T10:54:53.594Z,65.50
2022-12-01T10:55:53.558Z,63.63
2022-12-01T10:56:53.556Z,64.93
2022-12-01T10:57:53.573Z,63.53
2022-12-01T10:58:53.624Z,65.11
2022-12-01T10:59:53.547Z,74.71
2022-12-01T11:01:01.179Z,64.81
2022-12-01T11:01:54.692Z,64.60
2022-12-01T11:02:53.644Z,64.51
2022-12-01T11:03:53.542Z,61.43
2022-12-01T11:04:53.942Z,59.92
2022-12-01T11:05:53.518Z,61.33
2022-12-01T11:06:53.502Z,61.58
2022-12-01T11:07:53.605Z,59.99
2022-12-01T11:08:53.491Z,61.21
2022-12-01T11:09:53.461Z,61.85
2022-12-01T11:10:53.525Z,61.22
2022-12-01T11:11:53.451Z,59.44
2022-12-01T11:12:53.447Z,62.11
2022-12-01T11:13:53.454Z,62.60
2022-12-01T11:14:53.426Z,63.18
2022-12-01T11:15:53.428Z,62.18
2022-12-01T11:16:53.537Z,62.12
2022-12-01T11:17:53.431Z,61.90
2022-12-01T11:18:53.425Z,59.33
2022-12-01T11:19:53.592Z,61.97
2022-12-01T11:20:53.418Z,60.55
2022-12-01T11:21:53.388Z,62.44
2022-12-01T11:22:53.429Z,61.74
2022-12-01T11:23:53.384Z,61.40
2022-12-01T11:24:53.354Z,60.84
2022-12-01T11:25:53.356Z,61.80
2022-12-01T11:26:53.384Z,65.00
2022-12-01T11:27:53.355Z,63.12
2022-12-01T11:28:53.371Z,60.43
2022-12-01T11:29:53.328Z,61.09
2022-12-01T11:30:56.594Z,62.47
2022-12-01T11:31:53.384Z,61.29
2022-12-01T11:32:53.327Z,60.75
2022-12-01T11:33:53.315Z,65.63
2022-12-01T11:34:53.357Z,72.44
2022-12-01T11:35:53.331Z,71.46
2022-12-01T11:36:53.313Z,67.15
2022-12-01T11:38:21.139Z,63.91
2022-12-01T11:38:54.297Z,70.95
2022-12-01T11:39:53.321Z,64.49
2022-12-01T11:40:53.305Z,69.09
2022-12-01T11:41:53.260Z,64.41
2022-12-01T11:42:53.285Z,64.86
2022-12-01T11:44:01.220Z,64.54
2022-12-01T11:44:54.235Z,63.72
2022-12-01T11:45:53.267Z,63.29
2022-12-01T11:47:07.828Z,63.34
2022-12-01T11:47:54.199Z,64.06
2022-12-01T11:48:53.193Z,63.09
2022-12-01T11:49:53.354Z,62.57
2022-12-01T11:50:53.192Z,62.65
2022-12-01T11:51:53.195Z,65.45
2022-12-01T11:52:53.245Z,62.18
2022-12-01T11:53:53.157Z,61.70
2022-12-01T11:54:53.161Z,62.45
2022-12-01T11:55:53.153Z,61.87
2022-12-01T11:57:25.475Z,65.56
2022-12-01T11:57:54.178Z,69.04
2022-12-01T11:58:53.227Z,68.98
2022-12-01T11:59:53.269Z,69.29
2022-12-01T12:00:53.111Z,69.81
2022-12-01T12:01:53.199Z,70.19
2022-12-01T12:02:53.146Z,70.44
2022-12-01T12:03:53.235Z,66.96
2022-12-01T12:04:53.105Z,66.68
2022-12-01T12:05:57.658Z,63.21
2022-12-01T12:06:54.079Z,62.86
2022-12-01T12:07:53.098Z,63.48
2022-12-01T12:08:53.133Z,63.78
2022-12-01T12:09:53.518Z,70.31
2022-12-01T12:10:53.122Z,70.91
2022-12-01T12:11:53.014Z,69.35
2022-12-01T12:12:53.045Z,69.07
2022-12-01T12:13:53.019Z,68.73
2022-12-01T12:14:52.996Z,68.65
2022-12-01T12:15:53.103Z,68.85
2022-12-01T12:16:53.010Z,67.68
2022-12-01T12:17:53.077Z,68.74
2022-12-01T12:18:52.984Z,67.11
2022-12-01T12:20:07.679Z,70.21
2022-12-01T12:20:54.042Z,72.69
2022-12-01T12:21:52.973Z,72.21
2022-12-01T12:22:55.768Z,68.57
2022-12-01T12:23:53.010Z,69.16
2022-12-01T12:24:52.963Z,69.62
2022-12-01T12:25:52.927Z,70.59
2022-12-01T12:26:53.016Z,62.05
2022-12-01T12:27:52.934Z,62.85
2022-12-01T12:28:52.946Z,65.30
2022-12-01T12:29:53.070Z,66.83
2022-12-01T12:30:52.978Z,68.88
2022-12-01T12:31:52.906Z,66.89
2022-12-01T12:32:52.995Z,67.55
2022-12-01T12:33:52.941Z,65.41
2022-12-01T12:34:52.952Z,67.22
2022-12-01T12:35:52.873Z,67.80
2022-12-01T12:36:52.887Z,71.10
2022-12-01T12:37:52.865Z,71.20
2022-12-01T12:38:52.906Z,72.26
2022-12-01T12:39:52.941Z,72.87
2022-12-01T12:40:52.834Z,68.61
2022-12-01T12:41:52.841Z,70.19
2022-12-01T12:42:52.887Z,66.51
2022-12-01T12:43:52.852Z,66.20
2022-12-01T12:44:52.897Z,64.84
2022-12-01T12:45:52.869Z,65.44
2022-12-01T12:46:52.819Z,72.76
2022-12-01T12:47:52.784Z,76.40
2022-12-01T12:49:20.657Z,69.03
2022-12-01T12:49:55.910Z,66.00
2022-12-01T12:50:52.777Z,74.90
2022-12-01T12:51:52.772Z,73.51
2022-12-01T12:52:52.747Z,68.99